Terminal Aerodrome Forecast
Issued by NWS Memphis, TN

Home | Current Version | Previous Version | Text Only | Print | Product List | Glossary On
Versions: 1 2 3 4 5 6 7 8 9 10 11 12 13 14 15 16 17 18 19 20 21 22 23 24 25 26 27 28 29 30 31 32 33 34 35
000
FTUS44 KMEG 240522
TAFJBR
TAF
KJBR 240522Z 2406/2506 25009KT P6SM -SHRA SCT015 OVC070
     FM241000 21008KT P6SM VCSH BKN015
     FM241400 24012G19KT P6SM BKN020
     FM241800 25014G20KT P6SM BKN040 BKN250
     FM250000 25006KT P6SM SCT250=

USA.gov is the U.S. government's official web portal to all federal, state and local government web resources and services.